sensor_id;sensor_type;location;lat;lon;timestamp;P1;durP1;ratioP1;P2;durP2;ratioP2
4313;SDS011;2170;48.794;9.182;2023-12-14T00:02:04;2.90;;;2.60;;
4313;SDS011;2170;48.794;9.182;2023-12-14T00:04:55;2.70;;;2.50;;
4313;SDS011;2170;48.794;9.182;2023-12-14T00:07:34;3.33;;;3.13;;
4313;SDS011;2170;48.794;9.182;2023-12-14T00:10:22;3.53;;;2.67;;
4313;SDS011;2170;48.794;9.182;2023-12-14T00:13:12;3.40;;;2.93;;
4313;SDS011;2170;48.794;9.182;2023-12-14T00:16:17;3.13;;;2.90;;
4313;SDS011;2170;48.794;9.182;2023-12-14T00:19:11;2.90;;;2.70;;
4313;SDS011;2170;48.794;9.182;2023-12-14T00:21:55;3.20;;;3.00;;
4313;SDS011;2170;48.794;9.182;2023-12-14T00:24:39;3.40;;;3.20;;
4313;SDS011;2170;48.794;9.182;2023-12-14T00:27:21;3.60;;;3.40;;
4313;SDS011;2170;48.794;9.182;2023-12-14T00:30:07;3.17;;;3.00;;
4313;SDS011;2170;48.794;9.182;2023-12-14T00:32:48;3.67;;;3.10;;
4313;SDS011;2170;48.794;9.182;2023-12-14T00:35:26;2.93;;;2.73;;
4313;SDS011;2170;48.794;9.182;2023-12-14T00:38:05;1.83;;;1.73;;
4313;SDS011;2170;48.794;9.182;2023-12-14T00:40:49;2.53;;;2.33;;
4313;SDS011;2170;48.794;9.182;2023-12-14T00:43:27;2.03;;;1.93;;
4313;SDS011;2170;48.794;9.182;2023-12-14T00:46:17;1.90;;;1.80;;
4313;SDS011;2170;48.794;9.182;2023-12-14T00:48:59;1.50;;;1.47;;
4313;SDS011;2170;48.794;9.182;2023-12-14T00:51:43;1.90;;;1.80;;
4313;SDS011;2170;48.794;9.182;2023-12-14T00:54:44;2.03;;;1.80;;
4313;SDS011;2170;48.794;9.182;2023-12-14T00:57:44;2.43;;;2.10;;
4313;SDS011;2170;48.794;9.182;2023-12-14T01:00:24;2.10;;;1.90;;
4313;SDS011;2170;48.794;9.182;2023-12-14T01:03:10;2.17;;;2.07;;
4313;SDS011;2170;48.794;9.182;2023-12-14T01:05:58;2.17;;;2.00;;
4313;SDS011;2170;48.794;9.182;2023-12-14T01:08:36;2.20;;;2.10;;
4313;SDS011;2170;48.794;9.182;2023-12-14T01:11:16;2.57;;;2.37;;
4313;SDS011;2170;48.794;9.182;2023-12-14T01:14:01;3.13;;;2.83;;
4313;SDS011;2170;48.794;9.182;2023-12-14T01:16:43;2.43;;;2.23;;
4313;SDS011;2170;48.794;9.182;2023-12-14T01:19:22;2.37;;;2.17;;
4313;SDS011;2170;48.794;9.182;2023-12-14T01:22:08;2.33;;;2.10;;
4313;SDS011;2170;48.794;9.182;2023-12-14T01:24:58;2.60;;;2.40;;
4313;SDS011;2170;48.794;9.182;2023-12-14T01:27:39;3.30;;;2.80;;
4313;SDS011;2170;48.794;9.182;2023-12-14T01:30:28;3.07;;;2.73;;
4313;SDS011;2170;48.794;9.182;2023-12-14T01:33:19;2.80;;;2.60;;
4313;SDS011;2170;48.794;9.182;2023-12-14T01:35:54;3.23;;;3.03;;
4313;SDS011;2170;48.794;9.182;2023-12-14T01:38:39;3.23;;;2.80;;
4313;SDS011;2170;48.794;9.182;2023-12-14T01:41:27;2.83;;;2.57;;
4313;SDS011;2170;48.794;9.182;2023-12-14T01:44:15;2.17;;;2.07;;
4313;SDS011;2170;48.794;9.182;2023-12-14T01:47:02;3.30;;;2.70;;
4313;SDS011;2170;48.794;9.182;2023-12-14T01:49:57;3.20;;;2.53;;
4313;SDS011;2170;48.794;9.182;2023-12-14T01:52:38;2.60;;;2.40;;
4313;SDS011;2170;48.794;9.182;2023-12-14T01:55:24;2.50;;;2.30;;
4313;SDS011;2170;48.794;9.182;2023-12-14T01:57:59;2.83;;;1.93;;
4313;SDS011;2170;48.794;9.182;2023-12-14T02:00:34;2.30;;;2.10;;
4313;SDS011;2170;48.794;9.182;2023-12-14T02:03:18;1.93;;;1.93;;
4313;SDS011;2170;48.794;9.182;2023-12-14T02:06:10;2.43;;;1.90;;
4313;SDS011;2170;48.794;9.182;2023-12-14T02:08:48;2.30;;;2.10;;
4313;SDS011;2170;48.794;9.182;2023-12-14T02:11:32;2.10;;;2.00;;
4313;SDS011;2170;48.794;9.182;2023-12-14T02:14:21;2.10;;;1.60;;
4313;SDS011;2170;48.794;9.182;2023-12-14T02:16:57;2.80;;;2.20;;
4313;SDS011;2170;48.794;9.182;2023-12-14T02:19:34;2.10;;;1.90;;
4313;SDS011;2170;48.794;9.182;2023-12-14T02:22:09;2.40;;;1.90;;
4313;SDS011;2170;48.794;9.182;2023-12-14T02:27:43;2.93;;;1.70;;
4313;SDS011;2170;48.794;9.182;2023-12-14T02:30:29;1.90;;;1.80;;
4313;SDS011;2170;48.794;9.182;2023-12-14T02:33:10;1.60;;;1.50;;
4313;SDS011;2170;48.794;9.182;2023-12-14T02:35:55;1.47;;;1.47;;
4313;SDS011;2170;48.794;9.182;2023-12-14T02:38:30;2.10;;;1.90;;
4313;SDS011;2170;48.794;9.182;2023-12-14T02:41:09;1.70;;;1.60;;
4313;SDS011;2170;48.794;9.182;2023-12-14T02:43:45;1.40;;;1.30;;
4313;SDS011;2170;48.794;9.182;2023-12-14T02:49:30;1.50;;;1.40;;
4313;SDS011;2170;48.794;9.182;2023-12-14T02:52:17;2.03;;;1.73;;
4313;SDS011;2170;48.794;9.182;2023-12-14T02:55:27;1.40;;;1.30;;
4313;SDS011;2170;48.794;9.182;2023-12-14T02:58:24;1.63;;;1.53;;
4313;SDS011;2170;48.794;9.182;2023-12-14T03:04:39;2.10;;;1.60;;
4313;SDS011;2170;48.794;9.182;2023-12-14T03:07:41;2.93;;;1.50;;
4313;SDS011;2170;48.794;9.182;2023-12-14T03:10:52;1.60;;;1.53;;
4313;SDS011;2170;48.794;9.182;2023-12-14T03:13:48;1.87;;;1.77;;
4313;SDS011;2170;48.794;9.182;2023-12-14T03:16:45;2.27;;;1.87;;
4313;SDS011;2170;48.794;9.182;2023-12-14T03:23:08;2.90;;;1.90;;
4313;SDS011;2170;48.794;9.182;2023-12-14T03:26:19;1.70;;;1.53;;
4313;SDS011;2170;48.794;9.182;2023-12-14T03:29:10;1.83;;;1.67;;
4313;SDS011;2170;48.794;9.182;2023-12-14T03:32:13;2.37;;;1.60;;
4313;SDS011;2170;48.794;9.182;2023-12-14T03:35:28;2.10;;;2.00;;
4313;SDS011;2170;48.794;9.182;2023-12-14T03:38:07;1.97;;;1.87;;
4313;SDS011;2170;48.794;9.182;2023-12-14T03:40:47;1.47;;;1.47;;
4313;SDS011;2170;48.794;9.182;2023-12-14T03:43:39;1.87;;;1.57;;
4313;SDS011;2170;48.794;9.182;2023-12-14T03:46:17;2.13;;;2.03;;
4313;SDS011;2170;48.794;9.182;2023-12-14T03:48:57;1.50;;;1.40;;
4313;SDS011;2170;48.794;9.182;2023-12-14T03:51:43;1.73;;;1.60;;
4313;SDS011;2170;48.794;9.182;2023-12-14T03:54:23;1.60;;;1.50;;
4313;SDS011;2170;48.794;9.182;2023-12-14T03:57:06;1.40;;;1.40;;
4313;SDS011;2170;48.794;9.182;2023-12-14T04:00:09;1.50;;;1.47;;
4313;SDS011;2170;48.794;9.182;2023-12-14T04:06:22;1.30;;;1.30;;
4313;SDS011;2170;48.794;9.182;2023-12-14T04:09:10;1.60;;;1.53;;
4313;SDS011;2170;48.794;9.182;2023-12-14T04:12:02;2.33;;;1.70;;
4313;SDS011;2170;48.794;9.182;2023-12-14T04:14:48;1.87;;;1.77;;
4313;SDS011;2170;48.794;9.182;2023-12-14T04:17:25;1.63;;;1.53;;
4313;SDS011;2170;48.794;9.182;2023-12-14T04:20:19;1.67;;;1.57;;
4313;SDS011;2170;48.794;9.182;2023-12-14T04:23:10;5.30;;;1.90;;
4313;SDS011;2170;48.794;9.182;2023-12-14T04:25:51;2.43;;;2.30;;
4313;SDS011;2170;48.794;9.182;2023-12-14T04:32:02;1.83;;;1.70;;
4313;SDS011;2170;48.794;9.182;2023-12-14T04:41:12;1.93;;;1.83;;
4313;SDS011;2170;48.794;9.182;2023-12-14T04:44:24;1.97;;;1.87;;
4313;SDS011;2170;48.794;9.182;2023-12-14T04:47:34;2.10;;;1.90;;
4313;SDS011;2170;48.794;9.182;2023-12-14T04:50:25;2.17;;;2.07;;
4313;SDS011;2170;48.794;9.182;2023-12-14T04:53:14;1.80;;;1.80;;
4313;SDS011;2170;48.794;9.182;2023-12-14T04:56:11;1.83;;;1.70;;
4313;SDS011;2170;48.794;9.182;2023-12-14T04:59:17;3.80;;;2.40;;
4313;SDS011;2170;48.794;9.182;2023-12-14T05:02:35;2.20;;;1.97;;
4313;SDS011;2170;48.794;9.182;2023-12-14T05:05:34;3.80;;;2.40;;
4313;SDS011;2170;48.794;9.182;2023-12-14T05:21:22;2.37;;;2.27;;
4313;SDS011;2170;48.794;9.182;2023-12-14T05:24:25;2.37;;;2.20;;
4313;SDS011;2170;48.794;9.182;2023-12-14T05:27:04;3.13;;;2.87;;
4313;SDS011;2170;48.794;9.182;2023-12-14T05:29:45;2.53;;;2.40;;
4313;SDS011;2170;48.794;9.182;2023-12-14T05:32:34;2.60;;;2.50;;
4313;SDS011;2170;48.794;9.182;2023-12-14T05:35:12;2.60;;;2.40;;
4313;SDS011;2170;48.794;9.182;2023-12-14T05:37:59;2.33;;;2.23;;
4313;SDS011;2170;48.794;9.182;2023-12-14T05:40:41;2.40;;;2.30;;
4313;SDS011;2170;48.794;9.182;2023-12-14T05:43:27;3.10;;;2.90;;
4313;SDS011;2170;48.794;9.182;2023-12-14T05:46:24;3.23;;;3.00;;
4313;SDS011;2170;48.794;9.182;2023-12-14T05:48:59;3.87;;;3.63;;
4313;SDS011;2170;48.794;9.182;2023-12-14T05:51:36;5.23;;;4.73;;
4313;SDS011;2170;48.794;9.182;2023-12-14T05:54:20;4.37;;;3.97;;
4313;SDS011;2170;48.794;9.182;2023-12-14T05:57:01;4.00;;;3.70;;
4313;SDS011;2170;48.794;9.182;2023-12-14T05:59:51;3.93;;;3.63;;
4313;SDS011;2170;48.794;9.182;2023-12-14T06:02:24;7.70;;;4.30;;
4313;SDS011;2170;48.794;9.182;2023-12-14T06:04:59;5.40;;;3.80;;
4313;SDS011;2170;48.794;9.182;2023-12-14T06:07:37;4.43;;;3.93;;
4313;SDS011;2170;48.794;9.182;2023-12-14T06:10:21;3.50;;;3.30;;
4313;SDS011;2170;48.794;9.182;2023-12-14T06:13:06;3.07;;;2.80;;
4313;SDS011;2170;48.794;9.182;2023-12-14T06:15:38;2.83;;;2.73;;
4313;SDS011;2170;48.794;9.182;2023-12-14T06:21:23;4.60;;;3.13;;
4313;SDS011;2170;48.794;9.182;2023-12-14T06:24:04;4.07;;;3.77;;
4313;SDS011;2170;48.794;9.182;2023-12-14T06:26:56;3.57;;;3.27;;
4313;SDS011;2170;48.794;9.182;2023-12-14T06:29:42;3.10;;;2.90;;
4313;SDS011;2170;48.794;9.182;2023-12-14T06:32:23;3.20;;;3.00;;
4313;SDS011;2170;48.794;9.182;2023-12-14T06:35:07;3.37;;;3.13;;
4313;SDS011;2170;48.794;9.182;2023-12-14T06:37:51;4.50;;;4.20;;
4313;SDS011;2170;48.794;9.182;2023-12-14T06:40:27;5.67;;;3.87;;
4313;SDS011;2170;48.794;9.182;2023-12-14T06:43:05;3.50;;;3.20;;
4313;SDS011;2170;48.794;9.182;2023-12-14T06:45:50;4.63;;;4.30;;
4313;SDS011;2170;48.794;9.182;2023-12-14T06:51:51;5.43;;;4.07;;
4313;SDS011;2170;48.794;9.182;2023-12-14T06:54:44;4.70;;;4.20;;
4313;SDS011;2170;48.794;9.182;2023-12-14T06:57:39;4.40;;;4.00;;
4313;SDS011;2170;48.794;9.182;2023-12-14T07:03:45;6.27;;;4.20;;
4313;SDS011;2170;48.794;9.182;2023-12-14T07:06:34;5.00;;;4.60;;
4313;SDS011;2170;48.794;9.182;2023-12-14T07:09:08;6.13;;;5.53;;
4313;SDS011;2170;48.794;9.182;2023-12-14T07:11:46;7.63;;;6.07;;
4313;SDS011;2170;48.794;9.182;2023-12-14T07:14:20;6.37;;;5.47;;
4313;SDS011;2170;48.794;9.182;2023-12-14T07:16:50;5.73;;;5.23;;
4313;SDS011;2170;48.794;9.182;2023-12-14T07:19:44;6.30;;;5.80;;
4313;SDS011;2170;48.794;9.182;2023-12-14T07:22:14;6.10;;;5.60;;
4313;SDS011;2170;48.794;9.182;2023-12-14T07:24:45;5.83;;;5.33;;
4313;SDS011;2170;48.794;9.182;2023-12-14T07:27:24;6.07;;;5.60;;
4313;SDS011;2170;48.794;9.182;2023-12-14T07:30:05;6.30;;;5.80;;
4313;SDS011;2170;48.794;9.182;2023-12-14T07:32:45;5.93;;;5.43;;
4313;SDS011;2170;48.794;9.182;2023-12-14T07:35:25;6.97;;;6.37;;
4313;SDS011;2170;48.794;9.182;2023-12-14T07:37:56;6.83;;;6.20;;
4313;SDS011;2170;48.794;9.182;2023-12-14T07:40:42;6.67;;;6.07;;
4313;SDS011;2170;48.794;9.182;2023-12-14T07:43:17;6.73;;;6.13;;
4313;SDS011;2170;48.794;9.182;2023-12-14T07:45:52;6.40;;;5.90;;
4313;SDS011;2170;48.794;9.182;2023-12-14T07:48:39;6.47;;;5.80;;
4313;SDS011;2170;48.794;9.182;2023-12-14T07:51:30;6.27;;;5.73;;
4313;SDS011;2170;48.794;9.182;2023-12-14T07:54:08;5.83;;;5.33;;
4313;SDS011;2170;48.794;9.182;2023-12-14T07:57:07;6.37;;;5.80;;
4313;SDS011;2170;48.794;9.182;2023-12-14T08:00:07;7.73;;;5.80;;
4313;SDS011;2170;48.794;9.182;2023-12-14T08:02:54;5.97;;;5.40;;
4313;SDS011;2170;48.794;9.182;2023-12-14T08:05:35;7.17;;;6.47;;
4313;SDS011;2170;48.794;9.182;2023-12-14T08:08:10;7.47;;;6.87;;
4313;SDS011;2170;48.794;9.182;2023-12-14T08:10:39;6.73;;;6.20;;
4313;SDS011;2170;48.794;9.182;2023-12-14T08:13:09;6.20;;;5.70;;
4313;SDS011;2170;48.794;9.182;2023-12-14T08:15:52;6.83;;;6.13;;
4313;SDS011;2170;48.794;9.182;2023-12-14T08:18:27;7.37;;;6.73;;
4313;SDS011;2170;48.794;9.182;2023-12-14T08:20:59;10.47;;;6.97;;
4313;SDS011;2170;48.794;9.182;2023-12-14T08:23:44;7.00;;;6.40;;
4313;SDS011;2170;48.794;9.182;2023-12-14T08:26:18;8.33;;;7.30;;
4313;SDS011;2170;48.794;9.182;2023-12-14T08:29:06;7.57;;;6.97;;
4313;SDS011;2170;48.794;9.182;2023-12-14T08:31:40;8.67;;;7.77;;
4313;SDS011;2170;48.794;9.182;2023-12-14T08:34:15;9.33;;;8.43;;
4313;SDS011;2170;48.794;9.182;2023-12-14T08:37:03;9.33;;;7.97;;
4313;SDS011;2170;48.794;9.182;2023-12-14T08:39:36;8.50;;;7.60;;
4313;SDS011;2170;48.794;9.182;2023-12-14T08:42:10;8.37;;;7.57;;
4313;SDS011;2170;48.794;9.182;2023-12-14T08:44:42;8.33;;;7.30;;
4313;SDS011;2170;48.794;9.182;2023-12-14T08:47:29;9.67;;;8.67;;
4313;SDS011;2170;48.794;9.182;2023-12-14T08:50:21;8.90;;;8.10;;
4313;SDS011;2170;48.794;9.182;2023-12-14T08:52:54;10.10;;;7.87;;
4313;SDS011;2170;48.794;9.182;2023-12-14T08:55:34;10.13;;;8.70;;
4313;SDS011;2170;48.794;9.182;2023-12-14T08:58:12;10.33;;;9.10;;
4313;SDS011;2170;48.794;9.182;2023-12-14T09:00:45;9.10;;;8.00;;
4313;SDS011;2170;48.794;9.182;2023-12-14T09:03:17;9.90;;;8.83;;
4313;SDS011;2170;48.794;9.182;2023-12-14T09:05:49;9.50;;;8.40;;
4313;SDS011;2170;48.794;9.182;2023-12-14T09:08:19;12.10;;;9.50;;
4313;SDS011;2170;48.794;9.182;2023-12-14T09:10:48;8.93;;;8.13;;
4313;SDS011;2170;48.794;9.182;2023-12-14T09:13:20;11.90;;;8.77;;
4313;SDS011;2170;48.794;9.182;2023-12-14T09:15:48;9.40;;;8.50;;
4313;SDS011;2170;48.794;9.182;2023-12-14T09:18:20;9.60;;;8.70;;
4313;SDS011;2170;48.794;9.182;2023-12-14T09:20:53;9.07;;;8.17;;
4313;SDS011;2170;48.794;9.182;2023-12-14T09:23:28;10.30;;;9.30;;
4313;SDS011;2170;48.794;9.182;2023-12-14T09:26:01;9.53;;;8.63;;
4313;SDS011;2170;48.794;9.182;2023-12-14T09:28:35;10.60;;;7.60;;
4313;SDS011;2170;48.794;9.182;2023-12-14T09:31:07;10.53;;;8.50;;
4313;SDS011;2170;48.794;9.182;2023-12-14T09:33:41;10.00;;;8.10;;
4313;SDS011;2170;48.794;9.182;2023-12-14T09:36:15;8.93;;;7.80;;
4313;SDS011;2170;48.794;9.182;2023-12-14T09:38:52;9.37;;;8.47;;
4313;SDS011;2170;48.794;9.182;2023-12-14T09:41:27;8.97;;;8.17;;
4313;SDS011;2170;48.794;9.182;2023-12-14T09:44:16;10.20;;;9.10;;
4313;SDS011;2170;48.794;9.182;2023-12-14T09:46:56;10.10;;;9.03;;
4313;SDS011;2170;48.794;9.182;2023-12-14T09:49:27;9.87;;;8.67;;
4313;SDS011;2170;48.794;9.182;2023-12-14T09:52:10;9.77;;;8.87;;
4313;SDS011;2170;48.794;9.182;2023-12-14T09:54:42;10.33;;;9.27;;
4313;SDS011;2170;48.794;9.182;2023-12-14T09:57:20;10.13;;;9.10;;
4313;SDS011;2170;48.794;9.182;2023-12-14T09:59:53;11.57;;;9.93;;
4313;SDS011;2170;48.794;9.182;2023-12-14T10:02:40;10.63;;;9.60;;
4313;SDS011;2170;48.794;9.182;2023-12-14T10:05:29;15.30;;;10.50;;
4313;SDS011;2170;48.794;9.182;2023-12-14T10:08:11;13.23;;;10.80;;
4313;SDS011;2170;48.794;9.182;2023-12-14T10:10:52;11.90;;;10.57;;
4313;SDS011;2170;48.794;9.182;2023-12-14T10:13:36;11.97;;;9.80;;
4313;SDS011;2170;48.794;9.182;2023-12-14T10:16:25;12.20;;;10.87;;
4313;SDS011;2170;48.794;9.182;2023-12-14T10:18:57;14.73;;;9.83;;
4313;SDS011;2170;48.794;9.182;2023-12-14T10:21:27;12.43;;;10.60;;
4313;SDS011;2170;48.794;9.182;2023-12-14T10:24:03;11.73;;;10.57;;
4313;SDS011;2170;48.794;9.182;2023-12-14T10:26:36;13.30;;;9.97;;
4313;SDS011;2170;48.794;9.182;2023-12-14T10:29:07;11.37;;;10.03;;
4313;SDS011;2170;48.794;9.182;2023-12-14T10:31:46;8.97;;;8.07;;
4313;SDS011;2170;48.794;9.182;2023-12-14T10:34:19;11.57;;;9.13;;
4313;SDS011;2170;48.794;9.182;2023-12-14T10:36:47;9.27;;;8.47;;
4313;SDS011;2170;48.794;9.182;2023-12-14T10:39:18;10.90;;;8.03;;
4313;SDS011;2170;48.794;9.182;2023-12-14T10:41:57;9.07;;;8.17;;
4313;SDS011;2170;48.794;9.182;2023-12-14T10:44:38;11.33;;;8.23;;
4313;SDS011;2170;48.794;9.182;2023-12-14T10:47:16;9.70;;;8.70;;
4313;SDS011;2170;48.794;9.182;2023-12-14T10:49:46;9.93;;;8.33;;
4313;SDS011;2170;48.794;9.182;2023-12-14T10:52:21;11.10;;;9.70;;
4313;SDS011;2170;48.794;9.182;2023-12-14T10:55:04;11.40;;;9.23;;
4313;SDS011;2170;48.794;9.182;2023-12-14T10:57:44;9.70;;;8.80;;
4313;SDS011;2170;48.794;9.182;2023-12-14T11:00:18;12.20;;;9.70;;
4313;SDS011;2170;48.794;9.182;2023-12-14T11:02:47;9.80;;;8.90;;
4313;SDS011;2170;48.794;9.182;2023-12-14T11:05:17;9.03;;;8.17;;
4313;SDS011;2170;48.794;9.182;2023-12-14T11:08:01;10.80;;;9.73;;
4313;SDS011;2170;48.794;9.182;2023-12-14T11:10:54;9.67;;;7.87;;
4313;SDS011;2170;48.794;9.182;2023-12-14T11:17:09;11.10;;;8.63;;
4313;SDS011;2170;48.794;9.182;2023-12-14T11:19:42;9.70;;;8.17;;
4313;SDS011;2170;48.794;9.182;2023-12-14T11:25:01;12.87;;;9.00;;
4313;SDS011;2170;48.794;9.182;2023-12-14T11:27:42;10.57;;;9.57;;
4313;SDS011;2170;48.794;9.182;2023-12-14T11:30:14;9.27;;;8.13;;
4313;SDS011;2170;48.794;9.182;2023-12-14T11:32:50;11.43;;;8.57;;
4313;SDS011;2170;48.794;9.182;2023-12-14T11:35:37;11.90;;;8.47;;
4313;SDS011;2170;48.794;9.182;2023-12-14T11:38:29;8.47;;;7.77;;
4313;SDS011;2170;48.794;9.182;2023-12-14T11:41:03;12.47;;;7.47;;
4313;SDS011;2170;48.794;9.182;2023-12-14T11:43:40;8.07;;;7.27;;
4313;SDS011;2170;48.794;9.182;2023-12-14T11:46:20;9.17;;;7.50;;
4313;SDS011;2170;48.794;9.182;2023-12-14T11:48:55;8.83;;;7.93;;
4313;SDS011;2170;48.794;9.182;2023-12-14T11:51:31;8.77;;;7.87;;
4313;SDS011;2170;48.794;9.182;2023-12-14T11:54:02;9.47;;;7.60;;
4313;SDS011;2170;48.794;9.182;2023-12-14T11:56:34;8.67;;;7.77;;
4313;SDS011;2170;48.794;9.182;2023-12-14T11:59:02;7.30;;;6.60;;
4313;SDS011;2170;48.794;9.182;2023-12-14T12:01:31;7.47;;;6.63;;
4313;SDS011;2170;48.794;9.182;2023-12-14T12:04:09;6.83;;;6.00;;
4313;SDS011;2170;48.794;9.182;2023-12-14T12:06:46;5.40;;;5.00;;
4313;SDS011;2170;48.794;9.182;2023-12-14T12:09:41;7.13;;;5.33;;
4313;SDS011;2170;48.794;9.182;2023-12-14T12:12:26;4.83;;;4.43;;
4313;SDS011;2170;48.794;9.182;2023-12-14T12:14:54;4.70;;;4.10;;
4313;SDS011;2170;48.794;9.182;2023-12-14T12:17:27;3.67;;;3.37;;
4313;SDS011;2170;48.794;9.182;2023-12-14T12:20:20;3.80;;;3.60;;
4313;SDS011;2170;48.794;9.182;2023-12-14T12:22:55;4.50;;;3.40;;
4313;SDS011;2170;48.794;9.182;2023-12-14T12:25:35;3.73;;;3.53;;
4313;SDS011;2170;48.794;9.182;2023-12-14T12:28:10;3.80;;;3.50;;
4313;SDS011;2170;48.794;9.182;2023-12-14T12:30:54;3.13;;;2.90;;
4313;SDS011;2170;48.794;9.182;2023-12-14T12:33:45;3.93;;;3.53;;
4313;SDS011;2170;48.794;9.182;2023-12-14T12:36:33;4.10;;;3.80;;
4313;SDS011;2170;48.794;9.182;2023-12-14T12:39:20;3.53;;;3.23;;
4313;SDS011;2170;48.794;9.182;2023-12-14T12:42:05;3.27;;;3.00;;
4313;SDS011;2170;48.794;9.182;2023-12-14T12:44:40;3.47;;;3.27;;
4313;SDS011;2170;48.794;9.182;2023-12-14T12:47:22;3.40;;;3.00;;
4313;SDS011;2170;48.794;9.182;2023-12-14T12:49:57;2.70;;;2.50;;
4313;SDS011;2170;48.794;9.182;2023-12-14T12:52:33;2.80;;;2.63;;
4313;SDS011;2170;48.794;9.182;2023-12-14T12:55:05;3.10;;;2.80;;
4313;SDS011;2170;48.794;9.182;2023-12-14T12:57:35;3.53;;;3.20;;
4313;SDS011;2170;48.794;9.182;2023-12-14T13:00:07;3.50;;;3.20;;
4313;SDS011;2170;48.794;9.182;2023-12-14T13:02:41;5.17;;;2.90;;
4313;SDS011;2170;48.794;9.182;2023-12-14T13:05:22;3.43;;;3.13;;
4313;SDS011;2170;48.794;9.182;2023-12-14T13:08:08;6.30;;;3.87;;
4313;SDS011;2170;48.794;9.182;2023-12-14T13:10:50;2.93;;;2.73;;
4313;SDS011;2170;48.794;9.182;2023-12-14T13:13:25;2.87;;;2.67;;
4313;SDS011;2170;48.794;9.182;2023-12-14T13:16:00;3.60;;;3.30;;
4313;SDS011;2170;48.794;9.182;2023-12-14T13:18:28;3.27;;;2.97;;
4313;SDS011;2170;48.794;9.182;2023-12-14T13:20:56;3.53;;;3.23;;
4313;SDS011;2170;48.794;9.182;2023-12-14T13:23:31;3.33;;;3.00;;
4313;SDS011;2170;48.794;9.182;2023-12-14T13:26:01;3.47;;;3.17;;
4313;SDS011;2170;48.794;9.182;2023-12-14T13:28:30;3.60;;;3.30;;
4313;SDS011;2170;48.794;9.182;2023-12-14T13:31:04;3.70;;;3.03;;
4313;SDS011;2170;48.794;9.182;2023-12-14T13:33:32;3.57;;;3.33;;
4313;SDS011;2170;48.794;9.182;2023-12-14T13:36:02;3.73;;;3.43;;
4313;SDS011;2170;48.794;9.182;2023-12-14T13:38:38;3.73;;;3.43;;
4313;SDS011;2170;48.794;9.182;2023-12-14T13:41:11;2.97;;;2.77;;
4313;SDS011;2170;48.794;9.182;2023-12-14T13:43:39;3.90;;;3.70;;
4313;SDS011;2170;48.794;9.182;2023-12-14T13:46:08;3.97;;;3.57;;
4313;SDS011;2170;48.794;9.182;2023-12-14T13:48:36;3.47;;;3.27;;
4313;SDS011;2170;48.794;9.182;2023-12-14T13:51:06;4.63;;;4.13;;
4313;SDS011;2170;48.794;9.182;2023-12-14T13:53:34;3.50;;;3.30;;
4313;SDS011;2170;48.794;9.182;2023-12-14T13:56:03;3.60;;;3.30;;
4313;SDS011;2170;48.794;9.182;2023-12-14T13:58:32;5.40;;;4.10;;
4313;SDS011;2170;48.794;9.182;2023-12-14T14:01:03;4.00;;;3.60;;
4313;SDS011;2170;48.794;9.182;2023-12-14T14:03:44;5.20;;;3.40;;
4313;SDS011;2170;48.794;9.182;2023-12-14T14:06:13;4.73;;;4.03;;
4313;SDS011;2170;48.794;9.182;2023-12-14T14:08:45;6.23;;;4.80;;
4313;SDS011;2170;48.794;9.182;2023-12-14T14:11:22;5.87;;;5.27;;
4313;SDS011;2170;48.794;9.182;2023-12-14T14:13:52;7.13;;;6.43;;
4313;SDS011;2170;48.794;9.182;2023-12-14T14:16:32;8.10;;;6.60;;
4313;SDS011;2170;48.794;9.182;2023-12-14T14:19:02;8.20;;;7.40;;
4313;SDS011;2170;48.794;9.182;2023-12-14T14:21:35;8.10;;;7.13;;
4313;SDS011;2170;48.794;9.182;2023-12-14T14:24:04;8.73;;;7.83;;
4313;SDS011;2170;48.794;9.182;2023-12-14T14:26:58;8.63;;;7.17;;
4313;SDS011;2170;48.794;9.182;2023-12-14T14:29:41;9.90;;;8.17;;
4313;SDS011;2170;48.794;9.182;2023-12-14T14:32:44;9.67;;;7.90;;
4313;SDS011;2170;48.794;9.182;2023-12-14T14:35:20;9.17;;;8.13;;
4313;SDS011;2170;48.794;9.182;2023-12-14T14:37:53;10.57;;;8.27;;
4313;SDS011;2170;48.794;9.182;2023-12-14T14:40:32;11.20;;;8.40;;
4313;SDS011;2170;48.794;9.182;2023-12-14T14:43:04;10.33;;;9.30;;
4313;SDS011;2170;48.794;9.182;2023-12-14T14:45:31;10.27;;;9.17;;
4313;SDS011;2170;48.794;9.182;2023-12-14T14:47:59;11.07;;;9.73;;
4313;SDS011;2170;48.794;9.182;2023-12-14T14:50:30;12.13;;;9.13;;
4313;SDS011;2170;48.794;9.182;2023-12-14T14:53:10;11.17;;;9.97;;
4313;SDS011;2170;48.794;9.182;2023-12-14T14:55:42;13.30;;;9.67;;
4313;SDS011;2170;48.794;9.182;2023-12-14T14:58:20;13.70;;;10.80;;
4313;SDS011;2170;48.794;9.182;2023-12-14T15:00:50;19.77;;;11.70;;
4313;SDS011;2170;48.794;9.182;2023-12-14T15:03:45;13.60;;;11.57;;
4313;SDS011;2170;48.794;9.182;2023-12-14T15:06:14;12.27;;;10.50;;
4313;SDS011;2170;48.794;9.182;2023-12-14T15:08:51;13.13;;;11.47;;
4313;SDS011;2170;48.794;9.182;2023-12-14T15:11:28;12.30;;;11.00;;
4313;SDS011;2170;48.794;9.182;2023-12-14T15:13:58;13.00;;;10.93;;
4313;SDS011;2170;48.794;9.182;2023-12-14T15:16:28;15.07;;;12.37;;
4313;SDS011;2170;48.794;9.182;2023-12-14T15:19:03;13.93;;;11.53;;
4313;SDS011;2170;48.794;9.182;2023-12-14T15:21:41;14.40;;;11.53;;
4313;SDS011;2170;48.794;9.182;2023-12-14T15:24:25;13.00;;;11.00;;
4313;SDS011;2170;48.794;9.182;2023-12-14T15:27:04;15.07;;;12.23;;
4313;SDS011;2170;48.794;9.182;2023-12-14T15:29:44;15.03;;;11.27;;
4313;SDS011;2170;48.794;9.182;2023-12-14T15:32:21;18.43;;;11.37;;
4313;SDS011;2170;48.794;9.182;2023-12-14T15:34:59;14.40;;;11.63;;
4313;SDS011;2170;48.794;9.182;2023-12-14T15:37:41;17.43;;;14.17;;
4313;SDS011;2170;48.794;9.182;2023-12-14T15:40:42;18.50;;;12.03;;
4313;SDS011;2170;48.794;9.182;2023-12-14T15:43:26;15.47;;;13.17;;
4313;SDS011;2170;48.794;9.182;2023-12-14T15:46:03;14.10;;;11.10;;
4313;SDS011;2170;48.794;9.182;2023-12-14T15:48:36;15.83;;;12.80;;
4313;SDS011;2170;48.794;9.182;2023-12-14T15:51:35;14.90;;;11.57;;
4313;SDS011;2170;48.794;9.182;2023-12-14T15:54:10;12.83;;;11.40;;
4313;SDS011;2170;48.794;9.182;2023-12-14T15:56:50;14.50;;;11.87;;
4313;SDS011;2170;48.794;9.182;2023-12-14T15:59:21;14.67;;;12.17;;
4313;SDS011;2170;48.794;9.182;2023-12-14T16:02:37;14.07;;;11.43;;
4313;SDS011;2170;48.794;9.182;2023-12-14T16:05:39;15.73;;;11.67;;
4313;SDS011;2170;48.794;9.182;2023-12-14T16:08:32;15.87;;;12.60;;
4313;SDS011;2170;48.794;9.182;2023-12-14T16:17:55;14.80;;;12.43;;
4313;SDS011;2170;48.794;9.182;2023-12-14T16:20:40;13.37;;;10.87;;
4313;SDS011;2170;48.794;9.182;2023-12-14T16:23:13;14.37;;;11.30;;
4313;SDS011;2170;48.794;9.182;2023-12-14T16:25:46;14.63;;;12.30;;
4313;SDS011;2170;48.794;9.182;2023-12-14T16:28:14;14.73;;;10.63;;
4313;SDS011;2170;48.794;9.182;2023-12-14T16:30:43;18.07;;;12.50;;
4313;SDS011;2170;48.794;9.182;2023-12-14T16:33:23;13.10;;;11.07;;
4313;SDS011;2170;48.794;9.182;2023-12-14T16:35:55;13.80;;;10.67;;
4313;SDS011;2170;48.794;9.182;2023-12-14T16:38:26;13.50;;;11.27;;
4313;SDS011;2170;48.794;9.182;2023-12-14T16:41:05;15.00;;;12.43;;
4313;SDS011;2170;48.794;9.182;2023-12-14T16:43:44;16.13;;;12.10;;
4313;SDS011;2170;48.794;9.182;2023-12-14T16:46:24;15.43;;;11.33;;
4313;SDS011;2170;48.794;9.182;2023-12-14T16:49:15;16.87;;;11.33;;
4313;SDS011;2170;48.794;9.182;2023-12-14T16:51:46;11.77;;;9.93;;
4313;SDS011;2170;48.794;9.182;2023-12-14T16:54:26;12.53;;;11.10;;
4313;SDS011;2170;48.794;9.182;2023-12-14T16:56:57;13.10;;;9.90;;
4313;SDS011;2170;48.794;9.182;2023-12-14T16:59:32;12.07;;;9.87;;
4313;SDS011;2170;48.794;9.182;2023-12-14T17:02:03;13.57;;;10.00;;
4313;SDS011;2170;48.794;9.182;2023-12-14T17:04:33;11.73;;;9.43;;
4313;SDS011;2170;48.794;9.182;2023-12-14T17:07:01;11.37;;;8.93;;
4313;SDS011;2170;48.794;9.182;2023-12-14T17:09:30;10.00;;;8.70;;
4313;SDS011;2170;48.794;9.182;2023-12-14T17:11:59;10.73;;;7.90;;
4313;SDS011;2170;48.794;9.182;2023-12-14T17:14:28;12.13;;;9.30;;
4313;SDS011;2170;48.794;9.182;2023-12-14T17:16:57;9.47;;;8.27;;
4313;SDS011;2170;48.794;9.182;2023-12-14T17:19:26;9.07;;;8.00;;
4313;SDS011;2170;48.794;9.182;2023-12-14T17:21:55;10.53;;;8.87;;
4313;SDS011;2170;48.794;9.182;2023-12-14T17:24:23;11.03;;;8.57;;
4313;SDS011;2170;48.794;9.182;2023-12-14T17:26:51;8.37;;;7.53;;
4313;SDS011;2170;48.794;9.182;2023-12-14T17:29:19;6.60;;;6.00;;
4313;SDS011;2170;48.794;9.182;2023-12-14T17:31:58;6.93;;;5.87;;
4313;SDS011;2170;48.794;9.182;2023-12-14T17:34:31;6.93;;;6.23;;